createdAt,value
2018-06-13T00:01:38.678Z,15.60
2018-06-13T00:05:42.003Z,15.60
2018-06-13T00:09:45.994Z,15.50
2018-06-13T00:13:49.326Z,15.50
2018-06-13T00:17:52.713Z,15.50
2018-06-13T00:21:56.082Z,15.50
2018-06-13T00:25:59.783Z,15.40
2018-06-13T00:30:03.124Z,15.40
2018-06-13T00:34:06.463Z,15.40
2018-06-13T00:38:09.831Z,15.40
2018-06-13T00:42:13.175Z,15.30
2018-06-13T00:46:16.540Z,15.30
2018-06-13T00:50:20.501Z,15.30
2018-06-13T00:54:23.815Z,15.30
2018-06-13T00:58:27.147Z,15.20
2018-06-13T01:02:30.456Z,15.20
2018-06-13T01:06:33.898Z,15.20
2018-06-13T01:10:37.219Z,15.10
2018-06-13T01:14:40.558Z,15.10
2018-06-13T01:18:43.906Z,15.10
2018-06-13T01:22:47.228Z,15.10
2018-06-13T01:26:50.584Z,15.00
2018-06-13T01:30:53.995Z,15.10
2018-06-13T01:34:57.335Z,15.00
2018-06-13T01:39:00.647Z,15.00
2018-06-13T01:43:03.991Z,15.00
2018-06-13T01:47:07.328Z,14.90
2018-06-13T01:51:10.655Z,14.90
2018-06-13T01:55:14.214Z,14.90
2018-06-13T01:59:17.538Z,14.90
2018-06-13T02:03:20.846Z,14.80
2018-06-13T02:07:24.175Z,14.80
2018-06-13T02:11:27.522Z,14.70
2018-06-13T02:15:31.729Z,14.70
2018-06-13T02:19:35.057Z,14.70
2018-06-13T02:23:38.354Z,14.70
2018-06-13T02:27:41.718Z,14.70
2018-06-13T02:31:45.047Z,14.60
2018-06-13T02:35:48.400Z,14.60
2018-06-13T02:39:51.733Z,14.60
2018-06-13T02:43:55.047Z,14.60
2018-06-13T02:47:58.390Z,14.60
2018-06-13T02:52:01.723Z,14.60
2018-06-13T02:56:05.223Z,14.60
2018-06-13T03:00:08.604Z,14.60
2018-06-13T03:04:11.948Z,14.60
2018-06-13T03:08:15.280Z,14.60
2018-06-13T03:12:18.618Z,14.60
2018-06-13T03:16:21.983Z,14.50
2018-06-13T03:20:25.310Z,14.60
2018-06-13T03:24:28.754Z,14.50
2018-06-13T03:28:32.084Z,14.50
2018-06-13T03:36:38.462Z,14.50
2018-06-13T03:40:41.798Z,14.50
2018-06-13T03:44:45.134Z,14.50
2018-06-13T03:48:48.467Z,14.50
2018-06-13T03:52:51.962Z,14.50
2018-06-13T03:56:55.290Z,14.50
2018-06-13T04:00:58.631Z,14.50
2018-06-13T04:05:01.955Z,14.50
2018-06-13T04:09:07.207Z,14.50
2018-06-13T04:13:10.559Z,14.50
2018-06-13T04:17:13.919Z,14.50
2018-06-13T04:21:17.289Z,14.50
2018-06-13T04:25:20.659Z,14.60
2018-06-13T04:29:23.951Z,14.60
2018-06-13T04:33:27.295Z,14.60
2018-06-13T04:37:30.615Z,14.60
2018-06-13T04:41:33.958Z,14.70
2018-06-13T04:45:38.296Z,14.70
2018-06-13T04:49:41.594Z,14.70
2018-06-13T04:53:44.935Z,14.70
2018-06-13T04:57:48.803Z,14.80
2018-06-13T05:01:52.751Z,14.80
2018-06-13T05:05:56.118Z,14.80
2018-06-13T05:09:59.513Z,14.80
2018-06-13T05:14:02.840Z,14.80
2018-06-13T05:18:06.216Z,14.80
2018-06-13T05:22:09.556Z,14.80
2018-06-13T05:26:12.903Z,14.80
2018-06-13T05:30:16.218Z,14.90
2018-06-13T05:34:19.591Z,14.80
2018-06-13T05:38:23.507Z,14.90
2018-06-13T05:42:26.828Z,14.90
2018-06-13T05:46:30.166Z,14.90
2018-06-13T05:50:33.533Z,14.90
2018-06-13T05:54:36.862Z,15.00
2018-06-13T05:58:40.190Z,15.00
2018-06-13T06:02:43.538Z,15.00
2018-06-13T06:06:46.880Z,15.10
2018-06-13T06:10:50.205Z,15.10
2018-06-13T06:14:53.630Z,15.20
2018-06-13T06:18:56.967Z,15.20
2018-06-13T06:23:00.303Z,15.30
2018-06-13T06:27:03.627Z,15.30
2018-06-13T06:31:06.952Z,15.40
2018-06-13T06:35:10.303Z,15.40
2018-06-13T06:39:13.639Z,15.50
2018-06-13T06:43:16.979Z,15.50
2018-06-13T06:47:20.309Z,15.60
2018-06-13T06:51:23.642Z,15.70
2018-06-13T06:55:27.025Z,15.70
2018-06-13T06:59:30.319Z,15.80
2018-06-13T07:03:33.665Z,15.80
2018-06-13T07:07:36.994Z,15.90
2018-06-13T07:11:40.418Z,15.90
2018-06-13T07:15:44.010Z,16.00
2018-06-13T07:19:47.347Z,16.00
2018-06-13T07:23:50.660Z,16.00
2018-06-13T07:27:53.984Z,16.10
2018-06-13T07:31:57.351Z,16.10
2018-06-13T07:36:00.691Z,16.20
2018-06-13T07:40:04.084Z,16.20
2018-06-13T07:44:07.442Z,16.20
2018-06-13T07:48:10.774Z,16.20
2018-06-13T07:52:14.111Z,16.30
2018-06-13T07:56:17.419Z,16.30
2018-06-13T08:00:20.795Z,16.30
2018-06-13T08:04:24.123Z,16.20
2018-06-13T08:08:27.492Z,16.10
2018-06-13T08:12:30.799Z,16.00
2018-06-13T08:16:34.143Z,15.90
2018-06-13T08:20:37.457Z,15.80
2018-06-13T08:24:52.235Z,15.80
2018-06-13T08:28:55.560Z,15.80
2018-06-13T08:32:58.891Z,15.80
2018-06-13T08:37:02.186Z,16.00
2018-06-13T08:41:05.589Z,16.20
2018-06-13T08:45:08.911Z,16.30
2018-06-13T08:49:12.242Z,16.40
2018-06-13T08:53:15.579Z,16.50
2018-06-13T08:57:18.871Z,16.60
2018-06-13T09:01:22.295Z,16.70
2018-06-13T09:05:25.615Z,16.80
2018-06-13T09:09:28.960Z,16.80
2018-06-13T09:13:32.300Z,16.90
2018-06-13T09:17:35.627Z,17.00
2018-06-13T09:21:39.131Z,17.00
2018-06-13T09:25:42.473Z,17.10
2018-06-13T09:29:46.118Z,17.20
2018-06-13T09:33:49.456Z,17.30
2018-06-13T09:37:52.772Z,17.40
2018-06-13T09:42:01.204Z,17.60
2018-06-13T09:46:11.861Z,17.80
2018-06-13T09:50:07.933Z,17.90
2018-06-13T09:54:11.245Z,17.90
2018-06-13T09:58:14.558Z,17.90
2018-06-13T10:02:18.324Z,17.90
2018-06-13T10:06:21.654Z,17.90
2018-06-13T10:10:25.009Z,17.90
2018-06-13T10:14:28.353Z,17.80
2018-06-13T10:22:34.758Z,17.70
2018-06-13T10:26:38.129Z,17.70
2018-06-13T10:30:41.442Z,17.60
2018-06-13T10:34:44.777Z,17.60
2018-06-13T10:38:48.099Z,17.60
2018-06-13T10:42:51.447Z,17.70
2018-06-13T10:46:59.254Z,17.70
2018-06-13T10:51:02.699Z,17.80
2018-06-13T10:55:06.166Z,17.80
2018-06-13T10:59:09.534Z,18.00
2018-06-13T11:03:13.044Z,18.10
2018-06-13T11:07:16.400Z,18.20
2018-06-13T11:11:19.778Z,18.20
2018-06-13T11:15:23.147Z,18.20
2018-06-13T11:19:26.618Z,18.20
2018-06-13T11:23:29.989Z,18.20
2018-06-13T11:27:33.322Z,18.20
2018-06-13T11:31:36.788Z,18.10
2018-06-13T11:35:40.118Z,18.10
2018-06-13T11:39:43.572Z,18.10
2018-06-13T11:43:46.895Z,18.00
2018-06-13T11:47:50.215Z,18.00
2018-06-13T11:51:53.617Z,17.90
2018-06-13T11:55:56.960Z,17.90
2018-06-13T12:00:00.329Z,17.90
2018-06-13T12:04:03.714Z,18.00
2018-06-13T12:08:07.401Z,18.00
2018-06-13T12:12:10.732Z,18.10
2018-06-13T12:16:14.086Z,18.30
2018-06-13T12:20:17.452Z,18.40
2018-06-13T12:24:20.801Z,18.50
2018-06-13T12:28:24.242Z,18.60
2018-06-13T12:32:27.562Z,18.70
2018-06-13T12:36:30.899Z,18.70
2018-06-13T12:40:34.275Z,18.80
2018-06-13T12:44:37.563Z,18.80
2018-06-13T12:48:40.979Z,18.80
2018-06-13T12:52:44.363Z,18.90
2018-06-13T12:56:47.747Z,19.00
2018-06-13T13:00:51.558Z,19.00
2018-06-13T13:08:58.676Z,19.10
2018-06-13T13:13:02.015Z,19.20
2018-06-13T13:17:05.934Z,19.30
2018-06-13T13:21:09.574Z,19.40
2018-06-13T13:25:12.921Z,19.50
2018-06-13T13:29:16.278Z,19.50
2018-06-13T13:33:20.741Z,19.50
2018-06-13T13:37:24.136Z,19.50
2018-06-13T13:41:27.544Z,19.40
2018-06-13T13:45:30.955Z,19.40
2018-06-13T13:49:34.299Z,19.40
2018-06-13T13:53:37.686Z,19.40
2018-06-13T13:57:41.086Z,19.40
2018-06-13T14:01:44.670Z,19.40
2018-06-13T14:05:48.259Z,19.30
2018-06-13T14:09:51.665Z,19.30
2018-06-13T14:13:55.259Z,19.30
2018-06-13T14:17:58.663Z,19.30
2018-06-13T14:22:02.053Z,19.30
2018-06-13T14:26:05.479Z,19.20
2018-06-13T14:30:08.898Z,19.20
2018-06-13T14:34:12.259Z,19.20
2018-06-13T14:38:15.643Z,19.10
2018-06-13T14:42:19.088Z,19.10
2018-06-13T14:46:22.418Z,19.10
2018-06-13T14:50:25.799Z,19.10
2018-06-13T14:54:30.172Z,19.10
2018-06-13T14:58:33.763Z,19.20
2018-06-13T15:02:37.892Z,19.30
2018-06-13T15:06:41.240Z,19.40
2018-06-13T15:10:44.603Z,19.50
2018-06-13T15:14:48.194Z,19.60
2018-06-13T15:18:51.540Z,19.60
2018-06-13T15:22:54.894Z,19.70
2018-06-13T15:26:58.225Z,19.60
2018-06-13T15:31:01.575Z,19.60
2018-06-13T15:35:04.950Z,19.60
2018-06-13T15:39:10.401Z,19.50
2018-06-13T15:43:13.734Z,19.50
2018-06-13T15:47:17.115Z,19.60
2018-06-13T15:51:20.550Z,19.70
2018-06-13T15:55:23.930Z,20.00
2018-06-13T15:59:27.287Z,20.00
2018-06-13T16:03:30.639Z,20.20
2018-06-13T16:07:33.976Z,20.30
2018-06-13T16:11:37.387Z,20.40
2018-06-13T16:15:40.851Z,20.40
2018-06-13T16:19:44.226Z,20.40
2018-06-13T16:23:47.629Z,20.40
2018-06-13T16:27:50.914Z,20.50
2018-06-13T16:31:54.348Z,20.60
2018-06-13T16:35:57.699Z,20.60
2018-06-13T16:40:01.143Z,20.60
2018-06-13T16:44:04.550Z,20.50
2018-06-13T16:48:08.004Z,20.50
2018-06-13T16:52:22.715Z,20.50
2018-06-13T16:56:26.143Z,20.40
2018-06-13T17:00:29.507Z,20.30
2018-06-13T17:04:32.852Z,20.20
2018-06-13T17:08:36.209Z,20.10
2018-06-13T17:12:39.590Z,20.00
2018-06-13T17:16:42.941Z,20.00
2018-06-13T17:20:46.326Z,19.80
2018-06-13T17:24:49.839Z,19.70
2018-06-13T17:28:53.199Z,19.60
2018-06-13T17:32:56.518Z,19.50
2018-06-13T17:36:59.874Z,19.40
2018-06-13T17:41:03.404Z,19.30
2018-06-13T17:45:06.848Z,19.20
2018-06-13T17:53:13.240Z,19.00
2018-06-13T17:57:16.601Z,18.90
2018-06-13T18:01:20.006Z,18.80
2018-06-13T18:05:23.509Z,18.80
2018-06-13T18:09:26.875Z,18.70
2018-06-13T18:13:30.210Z,18.70
2018-06-13T18:17:33.591Z,18.60
2018-06-13T18:21:36.949Z,18.50
2018-06-13T18:25:40.303Z,18.50
2018-06-13T18:29:43.811Z,18.50
2018-06-13T18:33:47.169Z,18.40
2018-06-13T18:37:50.535Z,18.40
2018-06-13T18:41:53.911Z,18.40
2018-06-13T18:45:57.266Z,18.30
2018-06-13T18:50:00.615Z,18.20
2018-06-13T18:54:03.971Z,18.20
2018-06-13T18:58:07.354Z,18.00
2018-06-13T19:02:10.710Z,17.90
2018-06-13T19:06:14.080Z,17.80
2018-06-13T19:10:17.458Z,17.70
2018-06-13T19:14:20.805Z,17.50
2018-06-13T19:18:24.211Z,17.40
2018-06-13T19:22:27.583Z,17.30
2018-06-13T19:26:30.967Z,17.10
2018-06-13T19:30:34.341Z,17.00
2018-06-13T19:34:37.711Z,16.90
2018-06-13T19:38:41.059Z,16.80
2018-06-13T19:42:44.421Z,16.70
2018-06-13T19:50:50.930Z,16.50
2018-06-13T19:59:02.971Z,16.30
2018-06-13T20:03:11.622Z,16.10
2018-06-13T20:07:14.982Z,16.10
2018-06-13T20:11:18.422Z,15.90
2018-06-13T20:15:27.162Z,15.80
2018-06-13T20:19:36.120Z,15.70
2018-06-13T20:23:40.375Z,15.60
2018-06-13T20:27:48.887Z,15.50
2018-06-13T20:31:52.307Z,15.40
2018-06-13T20:35:55.661Z,15.30
2018-06-13T20:39:59.004Z,15.30
2018-06-13T20:44:02.411Z,15.10
2018-06-13T20:48:05.776Z,15.00
2018-06-13T20:52:09.116Z,14.90
2018-06-13T20:56:12.454Z,14.80
2018-06-13T21:00:15.804Z,14.80
2018-06-13T21:04:19.144Z,14.70
2018-06-13T21:08:22.747Z,14.60
2018-06-13T21:12:26.095Z,14.50
2018-06-13T21:16:29.447Z,14.40
2018-06-13T21:20:32.882Z,14.40
2018-06-13T21:24:36.224Z,14.30
2018-06-13T21:28:39.571Z,14.20
2018-06-13T21:32:42.998Z,14.20
2018-06-13T21:36:46.418Z,14.20
2018-06-13T21:40:49.728Z,14.10
2018-06-13T21:44:53.061Z,14.10
2018-06-13T21:48:56.400Z,14.00
2018-06-13T21:52:59.718Z,14.00
2018-06-13T21:57:03.203Z,13.90
2018-06-13T22:01:06.840Z,13.80
2018-06-13T22:05:10.179Z,13.80
2018-06-13T22:09:13.501Z,13.70
2018-06-13T22:13:16.825Z,13.70
2018-06-13T22:17:20.167Z,13.60
2018-06-13T22:21:23.582Z,13.50
2018-06-13T22:25:26.911Z,13.50
2018-06-13T22:29:30.231Z,13.40
2018-06-13T22:33:38.166Z,13.40
2018-06-13T22:37:41.502Z,13.30
2018-06-13T22:46:43.613Z,13.10
2018-06-13T22:50:47.027Z,13.00
2018-06-13T22:54:50.417Z,12.90
2018-06-13T22:58:53.743Z,12.90
2018-06-13T23:02:57.085Z,12.80
2018-06-13T23:07:00.390Z,12.70
2018-06-13T23:11:03.840Z,12.60
2018-06-13T23:15:07.187Z,12.60
2018-06-13T23:19:10.545Z,12.50
2018-06-13T23:23:13.867Z,12.50
2018-06-13T23:27:17.173Z,12.40
2018-06-13T23:31:20.588Z,12.40
2018-06-13T23:35:23.908Z,12.30
2018-06-13T23:39:27.231Z,12.30
2018-06-13T23:43:30.594Z,12.30
2018-06-13T23:47:33.901Z,12.20
2018-06-13T23:51:37.304Z,12.20
2018-06-13T23:55:40.672Z,12.10
2018-06-13T23:59:44.950Z,12.10
